sensor_id;sensor_type;location;lat;lon;timestamp;P1;durP1;ratioP1;P2;durP2;ratioP2
75937;SDS011;64615;32.062;34.834;2023-09-19T00:02:16;6.82;;;2.65;;
75937;SDS011;64615;32.062;34.834;2023-09-19T00:04:42;6.82;;;3.00;;
75937;SDS011;64615;32.062;34.834;2023-09-19T00:07:08;7.10;;;3.47;;
75937;SDS011;64615;32.062;34.834;2023-09-19T00:09:34;7.80;;;3.20;;
75937;SDS011;64615;32.062;34.834;2023-09-19T00:12:04;7.07;;;3.03;;
75937;SDS011;64615;32.062;34.834;2023-09-19T00:14:30;6.85;;;2.83;;
75937;SDS011;64615;32.062;34.834;2023-09-19T00:16:59;6.35;;;2.83;;
75937;SDS011;64615;32.062;34.834;2023-09-19T00:19:25;5.70;;;2.72;;
75937;SDS011;64615;32.062;34.834;2023-09-19T00:21:51;6.22;;;2.97;;
75937;SDS011;64615;32.062;34.834;2023-09-19T00:24:18;7.07;;;3.03;;
75937;SDS011;64615;32.062;34.834;2023-09-19T00:26:44;6.97;;;2.78;;
75937;SDS011;64615;32.062;34.834;2023-09-19T00:29:12;6.55;;;3.05;;
75937;SDS011;64615;32.062;34.834;2023-09-19T00:31:44;9.13;;;3.20;;
75937;SDS011;64615;32.062;34.834;2023-09-19T00:34:09;7.55;;;3.17;;
75937;SDS011;64615;32.062;34.834;2023-09-19T00:36:36;7.18;;;3.10;;
75937;SDS011;64615;32.062;34.834;2023-09-19T00:39:05;7.15;;;3.20;;
75937;SDS011;64615;32.062;34.834;2023-09-19T00:41:33;9.18;;;3.28;;
75937;SDS011;64615;32.062;34.834;2023-09-19T00:44:01;8.85;;;3.00;;
75937;SDS011;64615;32.062;34.834;2023-09-19T00:46:27;9.50;;;3.50;;
75937;SDS011;64615;32.062;34.834;2023-09-19T00:48:53;7.57;;;3.33;;
75937;SDS011;64615;32.062;34.834;2023-09-19T00:51:19;7.82;;;3.22;;
75937;SDS011;64615;32.062;34.834;2023-09-19T00:53:48;8.85;;;2.90;;
75937;SDS011;64615;32.062;34.834;2023-09-19T00:56:14;7.75;;;3.28;;
75937;SDS011;64615;32.062;34.834;2023-09-19T00:58:43;8.90;;;3.53;;
75937;SDS011;64615;32.062;34.834;2023-09-19T01:01:11;7.35;;;3.10;;
75937;SDS011;64615;32.062;34.834;2023-09-19T01:03:40;7.68;;;3.53;;
75937;SDS011;64615;32.062;34.834;2023-09-19T01:06:07;6.72;;;3.15;;
75937;SDS011;64615;32.062;34.834;2023-09-19T01:08:33;7.45;;;3.30;;
75937;SDS011;64615;32.062;34.834;2023-09-19T01:11:15;8.63;;;3.10;;
75937;SDS011;64615;32.062;34.834;2023-09-19T01:13:55;8.52;;;3.38;;
75937;SDS011;64615;32.062;34.834;2023-09-19T01:16:33;8.30;;;2.95;;
75937;SDS011;64615;32.062;34.834;2023-09-19T01:30:26;8.10;;;3.33;;
75937;SDS011;64615;32.062;34.834;2023-09-19T01:32:57;6.80;;;3.55;;
75937;SDS011;64615;32.062;34.834;2023-09-19T01:35:24;9.77;;;3.78;;
75937;SDS011;64615;32.062;34.834;2023-09-19T01:37:51;10.05;;;3.72;;
75937;SDS011;64615;32.062;34.834;2023-09-19T01:40:19;10.13;;;4.18;;
75937;SDS011;64615;32.062;34.834;2023-09-19T01:42:57;5.90;;;3.38;;
75937;SDS011;64615;32.062;34.834;2023-09-19T01:48:19;8.07;;;3.95;;
75937;SDS011;64615;32.062;34.834;2023-09-19T01:51:05;9.45;;;3.78;;
75937;SDS011;64615;32.062;34.834;2023-09-19T01:56:25;8.95;;;3.70;;
75937;SDS011;64615;32.062;34.834;2023-09-19T01:58:59;10.32;;;4.00;;
75937;SDS011;64615;32.062;34.834;2023-09-19T02:01:31;9.25;;;3.80;;
75937;SDS011;64615;32.062;34.834;2023-09-19T02:03:58;9.23;;;3.53;;
75937;SDS011;64615;32.062;34.834;2023-09-19T02:06:24;8.95;;;3.80;;
75937;SDS011;64615;32.062;34.834;2023-09-19T02:08:50;8.43;;;3.85;;
75937;SDS011;64615;32.062;34.834;2023-09-19T02:11:16;8.88;;;4.00;;
75937;SDS011;64615;32.062;34.834;2023-09-19T02:13:41;11.80;;;4.22;;
75937;SDS011;64615;32.062;34.834;2023-09-19T02:16:07;8.77;;;4.00;;
75937;SDS011;64615;32.062;34.834;2023-09-19T02:18:36;8.77;;;4.15;;
75937;SDS011;64615;32.062;34.834;2023-09-19T02:21:02;9.45;;;3.90;;
75937;SDS011;64615;32.062;34.834;2023-09-19T02:23:29;9.43;;;4.10;;
75937;SDS011;64615;32.062;34.834;2023-09-19T02:25:55;11.25;;;4.30;;
75937;SDS011;64615;32.062;34.834;2023-09-19T02:28:26;10.45;;;4.45;;
75937;SDS011;64615;32.062;34.834;2023-09-19T02:31:01;11.45;;;4.10;;
75937;SDS011;64615;32.062;34.834;2023-09-19T02:33:27;8.88;;;3.97;;
75937;SDS011;64615;32.062;34.834;2023-09-19T02:35:57;10.27;;;4.53;;
75937;SDS011;64615;32.062;34.834;2023-09-19T02:38:24;7.57;;;4.18;;
75937;SDS011;64615;32.062;34.834;2023-09-19T02:40:51;11.35;;;4.47;;
75937;SDS011;64615;32.062;34.834;2023-09-19T02:43:17;7.93;;;3.95;;
75937;SDS011;64615;32.062;34.834;2023-09-19T02:45:45;9.70;;;4.03;;
75937;SDS011;64615;32.062;34.834;2023-09-19T02:48:12;13.90;;;4.40;;
75937;SDS011;64615;32.062;34.834;2023-09-19T02:50:37;9.52;;;4.00;;
75937;SDS011;64615;32.062;34.834;2023-09-19T02:53:05;8.20;;;3.60;;
75937;SDS011;64615;32.062;34.834;2023-09-19T02:55:31;8.07;;;4.13;;
75937;SDS011;64615;32.062;34.834;2023-09-19T02:57:57;16.15;;;4.57;;
75937;SDS011;64615;32.062;34.834;2023-09-19T03:00:23;11.68;;;3.90;;
75937;SDS011;64615;32.062;34.834;2023-09-19T03:05:15;8.82;;;4.07;;
75937;SDS011;64615;32.062;34.834;2023-09-19T03:07:41;8.85;;;4.28;;
75937;SDS011;64615;32.062;34.834;2023-09-19T03:10:08;9.25;;;4.35;;
75937;SDS011;64615;32.062;34.834;2023-09-19T03:12:34;8.07;;;3.92;;
75937;SDS011;64615;32.062;34.834;2023-09-19T03:15:01;8.77;;;4.38;;
75937;SDS011;64615;32.062;34.834;2023-09-19T03:17:26;7.25;;;3.95;;
75937;SDS011;64615;32.062;34.834;2023-09-19T03:19:52;7.78;;;3.92;;
75937;SDS011;64615;32.062;34.834;2023-09-19T03:22:19;8.60;;;4.72;;
75937;SDS011;64615;32.062;34.834;2023-09-19T03:24:44;7.15;;;3.90;;
75937;SDS011;64615;32.062;34.834;2023-09-19T03:27:11;9.20;;;4.43;;
75937;SDS011;64615;32.062;34.834;2023-09-19T03:29:41;9.05;;;4.55;;
75937;SDS011;64615;32.062;34.834;2023-09-19T03:32:07;8.60;;;4.72;;
75937;SDS011;64615;32.062;34.834;2023-09-19T03:37:01;15.63;;;5.07;;
75937;SDS011;64615;32.062;34.834;2023-09-19T03:39:27;25.75;;;6.15;;
75937;SDS011;64615;32.062;34.834;2023-09-19T03:41:52;21.35;;;6.00;;
75937;SDS011;64615;32.062;34.834;2023-09-19T03:44:18;24.70;;;6.13;;
75937;SDS011;64615;32.062;34.834;2023-09-19T03:46:44;19.85;;;6.22;;
75937;SDS011;64615;32.062;34.834;2023-09-19T03:49:09;25.10;;;6.72;;
75937;SDS011;64615;32.062;34.834;2023-09-19T03:51:35;22.23;;;6.70;;
75937;SDS011;64615;32.062;34.834;2023-09-19T03:54:02;22.45;;;6.43;;
75937;SDS011;64615;32.062;34.834;2023-09-19T03:56:29;31.15;;;6.80;;
75937;SDS011;64615;32.062;34.834;2023-09-19T03:58:54;26.10;;;7.32;;
75937;SDS011;64615;32.062;34.834;2023-09-19T04:01:20;30.75;;;6.97;;
75937;SDS011;64615;32.062;34.834;2023-09-19T04:03:46;25.33;;;6.65;;
75937;SDS011;64615;32.062;34.834;2023-09-19T04:06:13;22.92;;;6.45;;
75937;SDS011;64615;32.062;34.834;2023-09-19T04:08:39;29.08;;;6.60;;
75937;SDS011;64615;32.062;34.834;2023-09-19T04:11:05;21.58;;;6.55;;
75937;SDS011;64615;32.062;34.834;2023-09-19T04:13:31;28.40;;;6.72;;
75937;SDS011;64615;32.062;34.834;2023-09-19T04:15:56;22.92;;;6.80;;
75937;SDS011;64615;32.062;34.834;2023-09-19T04:18:22;20.50;;;6.60;;
75937;SDS011;64615;32.062;34.834;2023-09-19T04:20:51;23.25;;;6.38;;
75937;SDS011;64615;32.062;34.834;2023-09-19T04:23:19;25.55;;;6.63;;
75937;SDS011;64615;32.062;34.834;2023-09-19T04:25:46;26.90;;;6.70;;
75937;SDS011;64615;32.062;34.834;2023-09-19T04:28:11;31.88;;;6.63;;
75937;SDS011;64615;32.062;34.834;2023-09-19T04:30:37;31.15;;;6.30;;
75937;SDS011;64615;32.062;34.834;2023-09-19T04:35:31;27.35;;;5.88;;
75937;SDS011;64615;32.062;34.834;2023-09-19T04:37:57;22.92;;;7.10;;
75937;SDS011;64615;32.062;34.834;2023-09-19T04:40:23;27.95;;;6.10;;
75937;SDS011;64615;32.062;34.834;2023-09-19T04:42:53;25.63;;;7.22;;
75937;SDS011;64615;32.062;34.834;2023-09-19T04:45:22;34.47;;;6.88;;
75937;SDS011;64615;32.062;34.834;2023-09-19T04:47:52;44.67;;;7.57;;
75937;SDS011;64615;32.062;34.834;2023-09-19T04:50:18;39.65;;;7.50;;
75937;SDS011;64615;32.062;34.834;2023-09-19T04:52:49;27.67;;;6.90;;
75937;SDS011;64615;32.062;34.834;2023-09-19T04:55:16;26.90;;;6.68;;
75937;SDS011;64615;32.062;34.834;2023-09-19T04:57:43;24.17;;;5.68;;
75937;SDS011;64615;32.062;34.834;2023-09-19T05:00:11;23.80;;;5.82;;
75937;SDS011;64615;32.062;34.834;2023-09-19T05:02:40;27.63;;;6.47;;
75937;SDS011;64615;32.062;34.834;2023-09-19T05:05:07;29.27;;;6.07;;
75937;SDS011;64615;32.062;34.834;2023-09-19T05:07:35;36.28;;;5.93;;
75937;SDS011;64615;32.062;34.834;2023-09-19T05:10:01;32.08;;;6.75;;
75937;SDS011;64615;32.062;34.834;2023-09-19T05:12:31;27.83;;;5.95;;
75937;SDS011;64615;32.062;34.834;2023-09-19T05:14:57;23.50;;;6.45;;
75937;SDS011;64615;32.062;34.834;2023-09-19T05:17:23;45.35;;;6.43;;
75937;SDS011;64615;32.062;34.834;2023-09-19T05:19:50;24.17;;;5.97;;
75937;SDS011;64615;32.062;34.834;2023-09-19T05:22:15;18.90;;;5.97;;
75937;SDS011;64615;32.062;34.834;2023-09-19T05:24:42;22.27;;;5.95;;
75937;SDS011;64615;32.062;34.834;2023-09-19T05:27:08;20.08;;;5.53;;
75937;SDS011;64615;32.062;34.834;2023-09-19T05:29:34;22.38;;;5.78;;
75937;SDS011;64615;32.062;34.834;2023-09-19T05:32:00;16.20;;;5.47;;
75937;SDS011;64615;32.062;34.834;2023-09-19T05:34:25;21.35;;;5.70;;
75937;SDS011;64615;32.062;34.834;2023-09-19T05:36:54;21.27;;;5.22;;
75937;SDS011;64615;32.062;34.834;2023-09-19T05:39:20;16.52;;;4.97;;
75937;SDS011;64615;32.062;34.834;2023-09-19T05:41:45;21.08;;;4.80;;
75937;SDS011;64615;32.062;34.834;2023-09-19T05:44:12;21.33;;;5.53;;
75937;SDS011;64615;32.062;34.834;2023-09-19T05:46:39;19.65;;;4.88;;
75937;SDS011;64615;32.062;34.834;2023-09-19T05:49:05;18.23;;;5.75;;
75937;SDS011;64615;32.062;34.834;2023-09-19T05:51:30;18.88;;;5.65;;
75937;SDS011;64615;32.062;34.834;2023-09-19T05:53:56;22.58;;;4.90;;
75937;SDS011;64615;32.062;34.834;2023-09-19T05:56:22;17.05;;;5.30;;
75937;SDS011;64615;32.062;34.834;2023-09-19T05:58:48;20.85;;;5.90;;
75937;SDS011;64615;32.062;34.834;2023-09-19T06:01:14;22.08;;;5.45;;
75937;SDS011;64615;32.062;34.834;2023-09-19T06:03:40;22.55;;;4.90;;
75937;SDS011;64615;32.062;34.834;2023-09-19T06:06:06;15.18;;;5.65;;
75937;SDS011;64615;32.062;34.834;2023-09-19T06:08:32;15.65;;;5.07;;
75937;SDS011;64615;32.062;34.834;2023-09-19T06:10:59;16.20;;;5.28;;
75937;SDS011;64615;32.062;34.834;2023-09-19T06:13:24;22.40;;;5.22;;
75937;SDS011;64615;32.062;34.834;2023-09-19T06:15:51;19.70;;;5.63;;
75937;SDS011;64615;32.062;34.834;2023-09-19T06:18:17;19.85;;;5.10;;
75937;SDS011;64615;32.062;34.834;2023-09-19T06:20:47;21.40;;;5.38;;
75937;SDS011;64615;32.062;34.834;2023-09-19T06:23:16;16.15;;;5.35;;
75937;SDS011;64615;32.062;34.834;2023-09-19T06:25:42;16.77;;;4.95;;
75937;SDS011;64615;32.062;34.834;2023-09-19T06:28:08;14.35;;;5.05;;
75937;SDS011;64615;32.062;34.834;2023-09-19T06:30:37;20.45;;;5.03;;
75937;SDS011;64615;32.062;34.834;2023-09-19T06:33:06;13.15;;;5.32;;
75937;SDS011;64615;32.062;34.834;2023-09-19T06:35:33;17.23;;;5.22;;
75937;SDS011;64615;32.062;34.834;2023-09-19T06:37:59;19.10;;;5.70;;
75937;SDS011;64615;32.062;34.834;2023-09-19T06:40:28;15.43;;;5.22;;
75937;SDS011;64615;32.062;34.834;2023-09-19T06:45:21;14.63;;;4.55;;
75937;SDS011;64615;32.062;34.834;2023-09-19T06:47:48;13.05;;;4.90;;
75937;SDS011;64615;32.062;34.834;2023-09-19T06:50:15;15.02;;;5.15;;
75937;SDS011;64615;32.062;34.834;2023-09-19T06:52:43;16.95;;;5.30;;
75937;SDS011;64615;32.062;34.834;2023-09-19T06:55:10;17.05;;;4.82;;
75937;SDS011;64615;32.062;34.834;2023-09-19T06:57:38;21.90;;;4.97;;
75937;SDS011;64615;32.062;34.834;2023-09-19T07:00:06;21.52;;;5.00;;
75937;SDS011;64615;32.062;34.834;2023-09-19T07:02:44;15.73;;;5.00;;
75937;SDS011;64615;32.062;34.834;2023-09-19T07:05:10;15.25;;;4.80;;
75937;SDS011;64615;32.062;34.834;2023-09-19T07:07:36;15.68;;;5.57;;
75937;SDS011;64615;32.062;34.834;2023-09-19T07:10:02;18.88;;;5.57;;
75937;SDS011;64615;32.062;34.834;2023-09-19T07:12:31;15.27;;;5.57;;
75937;SDS011;64615;32.062;34.834;2023-09-19T07:14:58;18.13;;;5.25;;
75937;SDS011;64615;32.062;34.834;2023-09-19T07:17:23;17.05;;;5.32;;
75937;SDS011;64615;32.062;34.834;2023-09-19T07:19:49;14.80;;;4.95;;
75937;SDS011;64615;32.062;34.834;2023-09-19T07:22:15;20.45;;;5.95;;
75937;SDS011;64615;32.062;34.834;2023-09-19T07:24:41;13.10;;;5.10;;
75937;SDS011;64615;32.062;34.834;2023-09-19T07:27:07;17.70;;;5.10;;
75937;SDS011;64615;32.062;34.834;2023-09-19T07:29:34;11.27;;;5.03;;
75937;SDS011;64615;32.062;34.834;2023-09-19T07:32:00;16.90;;;5.10;;
75937;SDS011;64615;32.062;34.834;2023-09-19T07:34:25;16.20;;;5.28;;
75937;SDS011;64615;32.062;34.834;2023-09-19T07:36:51;16.52;;;5.30;;
75937;SDS011;64615;32.062;34.834;2023-09-19T07:39:16;23.08;;;5.47;;
75937;SDS011;64615;32.062;34.834;2023-09-19T07:41:42;19.90;;;4.90;;
75937;SDS011;64615;32.062;34.834;2023-09-19T07:44:08;13.80;;;5.05;;
75937;SDS011;64615;32.062;34.834;2023-09-19T07:46:35;10.65;;;5.15;;
75937;SDS011;64615;32.062;34.834;2023-09-19T07:49:01;17.05;;;5.43;;
75937;SDS011;64615;32.062;34.834;2023-09-19T07:51:26;18.45;;;5.68;;
75937;SDS011;64615;32.062;34.834;2023-09-19T07:53:52;16.98;;;5.55;;
75937;SDS011;64615;32.062;34.834;2023-09-19T07:56:20;24.73;;;5.90;;
75937;SDS011;64615;32.062;34.834;2023-09-19T07:58:46;15.23;;;5.13;;
75937;SDS011;64615;32.062;34.834;2023-09-19T08:01:11;15.60;;;5.97;;
75937;SDS011;64615;32.062;34.834;2023-09-19T08:03:39;23.88;;;6.47;;
75937;SDS011;64615;32.062;34.834;2023-09-19T08:06:08;18.77;;;5.75;;
75937;SDS011;64615;32.062;34.834;2023-09-19T08:08:35;15.80;;;5.05;;
75937;SDS011;64615;32.062;34.834;2023-09-19T08:11:05;12.50;;;5.00;;
75937;SDS011;64615;32.062;34.834;2023-09-19T08:13:42;15.43;;;5.10;;
75937;SDS011;64615;32.062;34.834;2023-09-19T08:16:14;14.07;;;5.38;;
75937;SDS011;64615;32.062;34.834;2023-09-19T08:18:41;20.08;;;5.95;;
75937;SDS011;64615;32.062;34.834;2023-09-19T08:21:07;11.10;;;4.90;;
75937;SDS011;64615;32.062;34.834;2023-09-19T08:23:36;14.40;;;5.28;;
75937;SDS011;64615;32.062;34.834;2023-09-19T08:26:03;13.88;;;4.97;;
75937;SDS011;64615;32.062;34.834;2023-09-19T08:28:33;10.93;;;4.80;;
75937;SDS011;64615;32.062;34.834;2023-09-19T08:31:05;15.65;;;5.43;;
75937;SDS011;64615;32.062;34.834;2023-09-19T08:36:00;15.88;;;5.60;;
75937;SDS011;64615;32.062;34.834;2023-09-19T08:38:26;14.23;;;5.25;;
75937;SDS011;64615;32.062;34.834;2023-09-19T08:40:58;19.08;;;6.18;;
75937;SDS011;64615;32.062;34.834;2023-09-19T08:43:25;16.02;;;5.30;;
75937;SDS011;64615;32.062;34.834;2023-09-19T08:46:09;18.27;;;6.25;;
75937;SDS011;64615;32.062;34.834;2023-09-19T08:48:45;13.70;;;6.05;;
75937;SDS011;64615;32.062;34.834;2023-09-19T08:54:20;13.10;;;5.93;;
75937;SDS011;64615;32.062;34.834;2023-09-19T08:56:51;14.35;;;5.60;;
75937;SDS011;64615;32.062;34.834;2023-09-19T08:59:22;15.00;;;5.63;;
75937;SDS011;64615;32.062;34.834;2023-09-19T09:01:55;17.25;;;5.60;;
75937;SDS011;64615;32.062;34.834;2023-09-19T09:04:22;14.40;;;5.53;;
75937;SDS011;64615;32.062;34.834;2023-09-19T09:06:48;16.42;;;5.22;;
75937;SDS011;64615;32.062;34.834;2023-09-19T09:09:18;12.02;;;4.90;;
75937;SDS011;64615;32.062;34.834;2023-09-19T09:11:44;16.90;;;5.05;;
75937;SDS011;64615;32.062;34.834;2023-09-19T09:14:11;12.43;;;4.75;;
75937;SDS011;64615;32.062;34.834;2023-09-19T09:16:38;14.07;;;4.85;;
75937;SDS011;64615;32.062;34.834;2023-09-19T09:19:04;12.32;;;5.22;;
75937;SDS011;64615;32.062;34.834;2023-09-19T09:21:30;13.30;;;5.15;;
75937;SDS011;64615;32.062;34.834;2023-09-19T09:24:19;13.27;;;4.75;;
75937;SDS011;64615;32.062;34.834;2023-09-19T09:26:56;14.60;;;4.72;;
75937;SDS011;64615;32.062;34.834;2023-09-19T09:29:41;15.30;;;4.97;;
75937;SDS011;64615;32.062;34.834;2023-09-19T09:32:22;16.00;;;4.93;;
75937;SDS011;64615;32.062;34.834;2023-09-19T09:34:50;10.55;;;4.55;;
75937;SDS011;64615;32.062;34.834;2023-09-19T09:37:20;10.45;;;4.95;;
75937;SDS011;64615;32.062;34.834;2023-09-19T09:40:00;14.77;;;4.95;;
75937;SDS011;64615;32.062;34.834;2023-09-19T09:42:41;13.50;;;5.05;;
75937;SDS011;64615;32.062;34.834;2023-09-19T09:45:21;15.25;;;4.80;;
75937;SDS011;64615;32.062;34.834;2023-09-19T09:48:14;12.57;;;5.00;;
75937;SDS011;64615;32.062;34.834;2023-09-19T09:50:46;13.23;;;4.72;;
75937;SDS011;64615;32.062;34.834;2023-09-19T09:53:25;13.10;;;4.70;;
75937;SDS011;64615;32.062;34.834;2023-09-19T09:56:00;14.95;;;5.20;;
75937;SDS011;64615;32.062;34.834;2023-09-19T09:58:34;17.38;;;5.50;;
75937;SDS011;64615;32.062;34.834;2023-09-19T10:01:00;12.88;;;5.40;;
75937;SDS011;64615;32.062;34.834;2023-09-19T10:03:40;24.65;;;5.70;;
75937;SDS011;64615;32.062;34.834;2023-09-19T10:06:12;15.30;;;5.28;;
75937;SDS011;64615;32.062;34.834;2023-09-19T10:09:08;16.20;;;5.28;;
75937;SDS011;64615;32.062;34.834;2023-09-19T10:12:02;19.80;;;5.60;;
75937;SDS011;64615;32.062;34.834;2023-09-19T10:14:34;12.55;;;5.10;;
75937;SDS011;64615;32.062;34.834;2023-09-19T10:17:04;17.77;;;5.13;;
75937;SDS011;64615;32.062;34.834;2023-09-19T10:19:37;15.13;;;4.97;;
75937;SDS011;64615;32.062;34.834;2023-09-19T10:22:12;13.00;;;4.95;;
75937;SDS011;64615;32.062;34.834;2023-09-19T10:24:45;14.38;;;5.43;;
75937;SDS011;64615;32.062;34.834;2023-09-19T10:27:12;18.95;;;5.32;;
75937;SDS011;64615;32.062;34.834;2023-09-19T10:29:41;22.60;;;5.88;;
75937;SDS011;64615;32.062;34.834;2023-09-19T10:32:09;18.98;;;5.30;;
75937;SDS011;64615;32.062;34.834;2023-09-19T10:37:10;17.35;;;6.25;;
75937;SDS011;64615;32.062;34.834;2023-09-19T10:39:39;18.95;;;5.68;;
75937;SDS011;64615;32.062;34.834;2023-09-19T10:42:06;16.63;;;5.60;;
75937;SDS011;64615;32.062;34.834;2023-09-19T10:44:35;11.52;;;5.00;;
75937;SDS011;64615;32.062;34.834;2023-09-19T10:47:09;26.08;;;5.60;;
75937;SDS011;64615;32.062;34.834;2023-09-19T10:49:42;17.00;;;5.15;;
75937;SDS011;64615;32.062;34.834;2023-09-19T10:52:12;16.20;;;5.68;;
75937;SDS011;64615;32.062;34.834;2023-09-19T10:54:45;15.48;;;4.82;;
75937;SDS011;64615;32.062;34.834;2023-09-19T10:57:22;9.82;;;4.20;;
75937;SDS011;64615;32.062;34.834;2023-09-19T11:00:07;8.45;;;4.32;;
75937;SDS011;64615;32.062;34.834;2023-09-19T11:05:36;9.38;;;4.00;;
75937;SDS011;64615;32.062;34.834;2023-09-19T11:08:08;8.00;;;4.35;;
75937;SDS011;64615;32.062;34.834;2023-09-19T11:10:46;6.25;;;3.50;;
75937;SDS011;64615;32.062;34.834;2023-09-19T11:13:26;7.85;;;3.80;;
75937;SDS011;64615;32.062;34.834;2023-09-19T11:26:42;5.82;;;3.45;;
75937;SDS011;64615;32.062;34.834;2023-09-19T11:29:27;7.60;;;3.33;;
75937;SDS011;64615;32.062;34.834;2023-09-19T11:31:54;7.05;;;3.42;;
75937;SDS011;64615;32.062;34.834;2023-09-19T11:40:04;5.32;;;3.05;;
75937;SDS011;64615;32.062;34.834;2023-09-19T11:42:48;5.13;;;2.72;;
75937;SDS011;64615;32.062;34.834;2023-09-19T11:48:15;6.20;;;2.88;;
75937;SDS011;64615;32.062;34.834;2023-09-19T11:50:43;5.40;;;3.20;;
75937;SDS011;64615;32.062;34.834;2023-09-19T11:53:11;4.32;;;2.53;;
75937;SDS011;64615;32.062;34.834;2023-09-19T11:55:38;5.15;;;2.88;;
75937;SDS011;64615;32.062;34.834;2023-09-19T11:58:05;4.38;;;2.50;;
75937;SDS011;64615;32.062;34.834;2023-09-19T12:00:33;6.55;;;2.50;;
75937;SDS011;64615;32.062;34.834;2023-09-19T12:03:07;5.10;;;2.75;;
75937;SDS011;64615;32.062;34.834;2023-09-19T12:05:34;5.15;;;2.97;;
75937;SDS011;64615;32.062;34.834;2023-09-19T12:08:02;5.50;;;2.67;;
75937;SDS011;64615;32.062;34.834;2023-09-19T12:10:30;6.47;;;2.72;;
75937;SDS011;64615;32.062;34.834;2023-09-19T12:12:56;4.07;;;2.40;;
75937;SDS011;64615;32.062;34.834;2023-09-19T12:15:27;4.80;;;2.60;;
75937;SDS011;64615;32.062;34.834;2023-09-19T12:20:24;5.22;;;2.63;;
75937;SDS011;64615;32.062;34.834;2023-09-19T12:22:50;4.75;;;2.67;;
75937;SDS011;64615;32.062;34.834;2023-09-19T12:25:16;4.25;;;2.63;;
75937;SDS011;64615;32.062;34.834;2023-09-19T12:27:47;4.68;;;2.63;;
75937;SDS011;64615;32.062;34.834;2023-09-19T12:30:18;5.85;;;2.40;;
75937;SDS011;64615;32.062;34.834;2023-09-19T12:32:45;4.88;;;3.00;;
75937;SDS011;64615;32.062;34.834;2023-09-19T12:35:26;4.55;;;2.63;;
75937;SDS011;64615;32.062;34.834;2023-09-19T12:37:53;7.05;;;3.20;;
75937;SDS011;64615;32.062;34.834;2023-09-19T12:40:21;4.20;;;2.50;;
75937;SDS011;64615;32.062;34.834;2023-09-19T12:42:48;4.85;;;2.63;;
75937;SDS011;64615;32.062;34.834;2023-09-19T12:45:14;6.03;;;2.88;;
75937;SDS011;64615;32.062;34.834;2023-09-19T12:50:26;5.03;;;2.58;;
75937;SDS011;64615;32.062;34.834;2023-09-19T12:52:55;15.52;;;2.75;;
75937;SDS011;64615;32.062;34.834;2023-09-19T12:55:27;4.38;;;2.40;;
75937;SDS011;64615;32.062;34.834;2023-09-19T12:58:13;6.55;;;2.83;;
75937;SDS011;64615;32.062;34.834;2023-09-19T13:00:43;13.70;;;2.90;;
75937;SDS011;64615;32.062;34.834;2023-09-19T13:05:48;10.25;;;3.13;;
75937;SDS011;64615;32.062;34.834;2023-09-19T13:08:18;13.38;;;3.10;;
75937;SDS011;64615;32.062;34.834;2023-09-19T13:13:47;10.00;;;2.92;;
75937;SDS011;64615;32.062;34.834;2023-09-19T13:16:19;7.88;;;3.13;;
75937;SDS011;64615;32.062;34.834;2023-09-19T13:18:51;9.95;;;3.05;;
75937;SDS011;64615;32.062;34.834;2023-09-19T13:21:40;8.02;;;2.97;;
75937;SDS011;64615;32.062;34.834;2023-09-19T13:24:24;9.13;;;3.03;;
75937;SDS011;64615;32.062;34.834;2023-09-19T13:26:54;9.07;;;3.05;;
75937;SDS011;64615;32.062;34.834;2023-09-19T13:29:21;7.80;;;2.83;;
75937;SDS011;64615;32.062;34.834;2023-09-19T13:31:47;8.55;;;3.33;;
75937;SDS011;64615;32.062;34.834;2023-09-19T13:34:14;10.05;;;3.35;;
75937;SDS011;64615;32.062;34.834;2023-09-19T13:36:42;7.50;;;3.17;;
75937;SDS011;64615;32.062;34.834;2023-09-19T13:39:08;7.55;;;2.67;;
75937;SDS011;64615;32.062;34.834;2023-09-19T13:41:34;7.10;;;3.03;;
75937;SDS011;64615;32.062;34.834;2023-09-19T13:44:03;6.22;;;3.22;;
75937;SDS011;64615;32.062;34.834;2023-09-19T13:46:29;7.20;;;3.40;;
75937;SDS011;64615;32.062;34.834;2023-09-19T13:49:00;9.23;;;3.00;;
75937;SDS011;64615;32.062;34.834;2023-09-19T13:51:28;8.52;;;3.00;;
75937;SDS011;64615;32.062;34.834;2023-09-19T13:53:55;7.70;;;3.03;;
75937;SDS011;64615;32.062;34.834;2023-09-19T13:56:21;9.23;;;3.03;;
75937;SDS011;64615;32.062;34.834;2023-09-19T13:58:47;5.80;;;3.22;;
75937;SDS011;64615;32.062;34.834;2023-09-19T14:01:13;8.10;;;3.33;;
75937;SDS011;64615;32.062;34.834;2023-09-19T14:03:39;10.50;;;3.17;;
75937;SDS011;64615;32.062;34.834;2023-09-19T14:06:05;7.18;;;2.80;;
75937;SDS011;64615;32.062;34.834;2023-09-19T14:08:31;9.15;;;3.58;;
75937;SDS011;64615;32.062;34.834;2023-09-19T14:10:59;9.98;;;3.28;;
75937;SDS011;64615;32.062;34.834;2023-09-19T14:13:30;7.57;;;2.95;;
75937;SDS011;64615;32.062;34.834;2023-09-19T14:15:56;8.00;;;3.15;;
75937;SDS011;64615;32.062;34.834;2023-09-19T14:18:21;8.35;;;3.20;;
75937;SDS011;64615;32.062;34.834;2023-09-19T14:20:47;4.93;;;2.72;;
75937;SDS011;64615;32.062;34.834;2023-09-19T14:23:13;7.00;;;2.92;;
75937;SDS011;64615;32.062;34.834;2023-09-19T14:25:38;7.80;;;3.28;;
75937;SDS011;64615;32.062;34.834;2023-09-19T14:28:04;8.23;;;3.03;;
75937;SDS011;64615;32.062;34.834;2023-09-19T14:30:33;5.78;;;2.60;;
75937;SDS011;64615;32.062;34.834;2023-09-19T14:32:58;9.27;;;2.88;;
75937;SDS011;64615;32.062;34.834;2023-09-19T14:35:24;7.53;;;3.33;;
75937;SDS011;64615;32.062;34.834;2023-09-19T14:37:50;6.82;;;2.88;;
75937;SDS011;64615;32.062;34.834;2023-09-19T14:40:16;7.63;;;3.22;;
75937;SDS011;64615;32.062;34.834;2023-09-19T14:42:43;11.07;;;2.67;;
75937;SDS011;64615;32.062;34.834;2023-09-19T14:45:10;10.15;;;3.17;;
75937;SDS011;64615;32.062;34.834;2023-09-19T14:47:37;6.80;;;2.67;;
75937;SDS011;64615;32.062;34.834;2023-09-19T14:50:03;9.70;;;3.28;;
75937;SDS011;64615;32.062;34.834;2023-09-19T14:52:32;9.52;;;3.28;;
75937;SDS011;64615;32.062;34.834;2023-09-19T14:54:58;10.77;;;3.80;;
75937;SDS011;64615;32.062;34.834;2023-09-19T14:57:24;19.33;;;4.60;;
75937;SDS011;64615;32.062;34.834;2023-09-19T14:59:51;22.30;;;5.10;;
75937;SDS011;64615;32.062;34.834;2023-09-19T15:02:17;19.95;;;5.47;;
75937;SDS011;64615;32.062;34.834;2023-09-19T15:04:43;17.00;;;5.57;;
75937;SDS011;64615;32.062;34.834;2023-09-19T15:07:12;13.88;;;4.80;;
75937;SDS011;64615;32.062;34.834;2023-09-19T15:09:40;19.38;;;6.05;;
75937;SDS011;64615;32.062;34.834;2023-09-19T15:12:06;16.52;;;5.90;;
75937;SDS011;64615;32.062;34.834;2023-09-19T15:14:32;18.75;;;6.20;;
75937;SDS011;64615;32.062;34.834;2023-09-19T15:16:58;14.45;;;5.65;;
75937;SDS011;64615;32.062;34.834;2023-09-19T15:19:23;16.30;;;5.78;;
75937;SDS011;64615;32.062;34.834;2023-09-19T15:21:49;21.48;;;5.13;;
75937;SDS011;64615;32.062;34.834;2023-09-19T15:24:15;16.75;;;5.82;;
75937;SDS011;64615;32.062;34.834;2023-09-19T15:26:42;17.10;;;5.65;;
75937;SDS011;64615;32.062;34.834;2023-09-19T15:29:09;15.35;;;5.35;;
75937;SDS011;64615;32.062;34.834;2023-09-19T15:31:35;18.42;;;5.78;;
75937;SDS011;64615;32.062;34.834;2023-09-19T15:34:01;24.50;;;5.85;;
75937;SDS011;64615;32.062;34.834;2023-09-19T15:36:28;31.45;;;6.78;;
75937;SDS011;64615;32.062;34.834;2023-09-19T15:38:58;42.03;;;8.80;;
75937;SDS011;64615;32.062;34.834;2023-09-19T15:41:34;46.72;;;11.18;;
75937;SDS011;64615;32.062;34.834;2023-09-19T15:44:02;77.85;;;13.63;;